createdAt,value
2019-03-16T00:00:14.750Z,7.67
2019-03-16T00:02:45.002Z,7.65
2019-03-16T00:05:15.316Z,7.66
2019-03-16T00:07:45.965Z,7.13
2019-03-16T00:10:16.828Z,7.59
2019-03-16T00:12:49.157Z,7.51
2019-03-16T00:15:20.665Z,7.51
2019-03-16T00:17:51.037Z,7.54
2019-03-16T00:20:21.622Z,7.47
2019-03-16T00:22:51.879Z,7.49
2019-03-16T00:25:22.165Z,7.51
2019-03-16T00:27:52.767Z,7.48
2019-03-16T00:30:23.154Z,7.46
2019-03-16T00:32:53.434Z,7.46
2019-03-16T00:35:24.063Z,7.46
2019-03-16T00:37:54.982Z,7.50
2019-03-16T00:40:25.815Z,7.47
2019-03-16T00:42:56.576Z,7.51
2019-03-16T00:45:27.036Z,7.55
2019-03-16T00:47:58.659Z,7.55
2019-03-16T00:50:29.117Z,7.52
2019-03-16T00:52:59.435Z,7.53
2019-03-16T00:55:29.872Z,7.47
2019-03-16T00:58:00.490Z,7.47
2019-03-16T01:00:31.066Z,7.58
2019-03-16T01:03:01.325Z,7.63
2019-03-16T01:05:31.574Z,7.55
2019-03-16T01:08:02.187Z,7.59
2019-03-16T01:10:32.411Z,7.57
2019-03-16T01:13:03.005Z,7.66
2019-03-16T01:15:33.467Z,7.66
2019-03-16T01:18:03.713Z,7.62
2019-03-16T01:20:34.027Z,7.67
2019-03-16T01:23:04.582Z,7.65
2019-03-16T01:25:34.806Z,7.64
2019-03-16T01:28:05.110Z,7.66
2019-03-16T01:30:35.684Z,7.73
2019-03-16T01:33:06.544Z,7.63
2019-03-16T01:35:36.865Z,7.73
2019-03-16T01:38:07.387Z,7.74
2019-03-16T01:40:37.762Z,7.81
2019-03-16T01:43:08.069Z,7.85
2019-03-16T01:45:38.663Z,7.87
2019-03-16T01:48:08.880Z,7.92
2019-03-16T01:50:39.269Z,7.94
2019-03-16T01:53:11.873Z,7.91
2019-03-16T01:55:42.257Z,7.91
2019-03-16T01:58:12.474Z,7.91
2019-03-16T02:00:43.040Z,7.87
2019-03-16T02:03:13.307Z,7.88
2019-03-16T02:05:43.532Z,7.88
2019-03-16T02:08:14.113Z,7.94
2019-03-16T02:10:44.346Z,7.88
2019-03-16T02:13:15.040Z,7.90
2019-03-16T02:15:47.596Z,7.79
2019-03-16T02:18:19.367Z,7.79
2019-03-16T02:20:49.629Z,7.79
2019-03-16T02:23:20.315Z,7.83
2019-03-16T02:25:50.689Z,7.83
2019-03-16T02:28:21.171Z,7.84
2019-03-16T02:30:51.705Z,7.86
2019-03-16T02:33:21.710Z,7.86
2019-03-16T02:35:51.977Z,7.77
2019-03-16T02:38:22.689Z,7.77
2019-03-16T02:40:52.999Z,7.79
2019-03-16T02:43:23.110Z,7.79
2019-03-16T02:45:53.771Z,7.87
2019-03-16T02:48:25.412Z,7.84
2019-03-16T02:50:55.637Z,7.90
2019-03-16T02:53:29.145Z,7.84
2019-03-16T02:55:59.441Z,7.82
2019-03-16T02:58:31.622Z,7.89
2019-03-16T03:01:05.331Z,7.79
2019-03-16T03:03:37.461Z,7.85
2019-03-16T03:06:09.569Z,7.85
2019-03-16T03:08:39.924Z,7.76
2019-03-16T03:11:10.292Z,7.81
2019-03-16T03:13:40.583Z,7.76
2019-03-16T03:16:10.884Z,7.76
2019-03-16T03:18:41.082Z,7.81
2019-03-16T03:21:11.397Z,7.77
2019-03-16T03:23:41.721Z,7.77
2019-03-16T03:26:12.040Z,7.74
2019-03-16T03:28:42.208Z,7.73
2019-03-16T03:31:12.518Z,7.63
2019-03-16T03:33:59.202Z,7.67
2019-03-16T03:36:15.532Z,7.67
2019-03-16T03:38:45.719Z,7.77
2019-03-16T03:41:15.972Z,7.73
2019-03-16T03:43:46.457Z,7.73
2019-03-16T03:46:16.766Z,7.78
2019-03-16T03:48:47.375Z,7.25
2019-03-16T03:51:17.659Z,7.24
2019-03-16T03:53:48.403Z,7.73
2019-03-16T03:56:19.339Z,7.78
2019-03-16T03:58:49.654Z,7.70
2019-03-16T04:01:20.318Z,7.70
2019-03-16T04:03:50.658Z,7.74
2019-03-16T04:06:21.063Z,7.75
2019-03-16T04:08:51.541Z,7.19
2019-03-16T04:11:22.111Z,7.73
2019-03-16T04:13:52.343Z,7.73
2019-03-16T04:16:23.837Z,7.47
2019-03-16T04:18:53.967Z,7.71
2019-03-16T04:21:25.289Z,7.65
2019-03-16T04:23:56.771Z,7.65
2019-03-16T04:26:27.251Z,7.62
2019-03-16T04:28:57.558Z,7.60
2019-03-16T04:31:30.769Z,7.58
2019-03-16T04:34:01.581Z,7.49
2019-03-16T04:36:32.174Z,7.52
2019-03-16T04:39:04.748Z,7.46
2019-03-16T04:41:35.330Z,7.45
2019-03-16T04:44:05.950Z,7.41
2019-03-16T04:46:36.463Z,7.43
2019-03-16T04:49:07.080Z,7.42
2019-03-16T04:51:37.739Z,7.37
2019-03-16T04:54:08.005Z,7.37
2019-03-16T04:56:38.283Z,6.70
2019-03-16T04:59:08.431Z,6.70
2019-03-16T05:01:40.046Z,7.29
2019-03-16T05:04:10.376Z,7.29
2019-03-16T05:06:41.065Z,7.30
2019-03-16T05:09:11.375Z,7.37
2019-03-16T05:11:41.678Z,7.28
2019-03-16T05:14:12.214Z,7.09
2019-03-16T05:16:42.954Z,7.16
2019-03-16T05:19:13.454Z,7.16
2019-03-16T05:21:43.607Z,7.21
2019-03-16T05:24:13.937Z,7.29
2019-03-16T05:26:44.538Z,7.20
2019-03-16T05:29:14.675Z,7.26
2019-03-16T05:31:45.173Z,7.26
2019-03-16T05:34:17.223Z,7.22
2019-03-16T05:36:47.772Z,7.25
2019-03-16T05:39:18.702Z,7.28
2019-03-16T05:41:49.953Z,7.28
2019-03-16T05:44:20.216Z,7.21
2019-03-16T05:46:50.751Z,7.11
2019-03-16T05:49:21.158Z,7.07
2019-03-16T05:51:51.387Z,6.97
2019-03-16T05:54:23.353Z,6.97
2019-03-16T05:56:54.724Z,6.95
2019-03-16T05:59:24.954Z,6.93
2019-03-16T06:01:55.419Z,6.93
2019-03-16T06:04:25.803Z,7.02
2019-03-16T06:06:57.046Z,6.92
2019-03-16T06:09:27.277Z,6.93
2019-03-16T06:11:58.680Z,6.93
2019-03-16T06:14:29.026Z,6.91
2019-03-16T06:16:59.716Z,6.77
2019-03-16T06:19:30.022Z,6.77
2019-03-16T06:22:00.645Z,6.88
2019-03-16T06:24:31.172Z,7.00
2019-03-16T06:27:01.317Z,7.00
2019-03-16T06:29:31.519Z,7.04
2019-03-16T06:32:07.051Z,7.02
2019-03-16T06:34:37.316Z,7.19
2019-03-16T06:37:07.899Z,7.09
2019-03-16T06:39:38.821Z,7.09
2019-03-16T06:42:11.459Z,7.10
2019-03-16T06:44:42.362Z,7.10
2019-03-16T06:47:12.622Z,7.08
2019-03-16T06:49:43.234Z,7.08
2019-03-16T06:52:13.782Z,7.14
2019-03-16T06:54:44.866Z,7.22
2019-03-16T06:57:15.879Z,7.14
2019-03-16T06:59:47.576Z,7.14
2019-03-16T07:02:18.244Z,7.16
2019-03-16T07:04:49.291Z,7.14
2019-03-16T07:07:19.865Z,7.14
2019-03-16T07:09:52.563Z,7.14
2019-03-16T07:12:23.059Z,6.98
2019-03-16T07:14:54.644Z,7.15
2019-03-16T07:17:24.828Z,7.18
2019-03-16T07:19:56.881Z,7.29
2019-03-16T07:22:27.474Z,7.39
2019-03-16T07:24:57.781Z,7.39
2019-03-16T07:27:28.894Z,7.54
2019-03-16T07:29:59.406Z,7.54
2019-03-16T07:32:29.967Z,7.48
2019-03-16T07:35:00.382Z,7.48
2019-03-16T07:37:31.645Z,7.54
2019-03-16T07:40:06.540Z,7.59
2019-03-16T07:42:37.044Z,7.70
2019-03-16T07:45:09.023Z,7.33
2019-03-16T07:47:39.702Z,7.38
2019-03-16T07:50:10.659Z,7.44
2019-03-16T07:52:44.303Z,7.38
2019-03-16T07:55:14.478Z,7.38
2019-03-16T07:57:45.220Z,7.20
2019-03-16T08:00:17.726Z,7.69
2019-03-16T08:02:48.262Z,7.86
2019-03-16T08:05:19.446Z,7.86
2019-03-16T08:07:50.951Z,8.02
2019-03-16T08:10:21.233Z,8.02
2019-03-16T08:12:53.429Z,7.69
2019-03-16T08:15:23.840Z,7.75
2019-03-16T08:17:59.644Z,7.85
2019-03-16T08:20:31.709Z,8.02
2019-03-16T08:23:02.536Z,8.25
2019-03-16T08:25:33.177Z,8.25
2019-03-16T08:28:04.321Z,7.32
2019-03-16T08:30:35.194Z,7.32
2019-03-16T08:33:11.131Z,7.89
2019-03-16T08:35:41.448Z,8.08
2019-03-16T08:38:12.510Z,8.02
2019-03-16T08:40:42.846Z,8.35
2019-03-16T08:43:13.251Z,8.31
2019-03-16T08:45:43.613Z,8.29
2019-03-16T08:48:22.718Z,8.40
2019-03-16T08:50:48.943Z,8.54
2019-03-16T08:53:19.471Z,8.63
2019-03-16T08:55:50.009Z,8.24
2019-03-16T08:58:20.405Z,8.48
2019-03-16T09:00:51.964Z,8.37
2019-03-16T09:03:22.366Z,8.17
2019-03-16T09:05:52.657Z,8.25
2019-03-16T09:08:29.574Z,8.23
2019-03-16T09:11:00.519Z,8.23
2019-03-16T09:13:33.616Z,8.26
2019-03-16T09:16:05.256Z,7.64
2019-03-16T09:18:36.204Z,8.10
2019-03-16T09:21:08.398Z,8.12
2019-03-16T09:23:39.004Z,8.30
2019-03-16T09:26:09.687Z,8.25
2019-03-16T09:28:41.930Z,8.12
2019-03-16T09:31:14.039Z,7.92
2019-03-16T09:33:46.292Z,8.07
2019-03-16T09:36:22.672Z,7.94
2019-03-16T09:38:53.943Z,7.92
2019-03-16T09:41:24.490Z,7.92
2019-03-16T09:43:54.879Z,7.93
2019-03-16T09:46:25.182Z,7.97
2019-03-16T09:48:55.403Z,7.88
2019-03-16T09:51:26.170Z,7.88
2019-03-16T09:53:57.002Z,8.01
2019-03-16T09:56:29.642Z,8.30
2019-03-16T09:59:00.462Z,8.39
2019-03-16T10:01:30.864Z,8.28
2019-03-16T10:04:01.796Z,8.11
2019-03-16T10:06:40.441Z,8.29
2019-03-16T10:09:11.021Z,8.15
2019-03-16T10:11:41.386Z,8.22
2019-03-16T10:14:11.930Z,8.00
2019-03-16T10:16:42.247Z,8.00
2019-03-16T10:19:13.120Z,8.24
2019-03-16T10:21:43.559Z,8.17
2019-03-16T10:24:17.048Z,8.23
2019-03-16T10:26:47.285Z,8.40
2019-03-16T10:29:17.801Z,8.43
2019-03-16T10:31:48.283Z,8.86
2019-03-16T10:34:18.574Z,8.94
2019-03-16T10:36:48.912Z,8.93
2019-03-16T10:39:19.221Z,8.67
2019-03-16T10:41:49.559Z,8.62
2019-03-16T10:44:21.330Z,8.64
2019-03-16T10:46:51.665Z,8.91
2019-03-16T10:49:22.394Z,9.13
2019-03-16T10:51:52.700Z,9.25
2019-03-16T10:54:24.517Z,9.39
2019-03-16T10:56:56.460Z,9.39
2019-03-16T10:59:27.123Z,9.59
2019-03-16T11:01:58.160Z,9.84
2019-03-16T11:04:30.129Z,9.86
2019-03-16T11:07:00.685Z,10.12
2019-03-16T11:09:31.542Z,10.29
2019-03-16T11:12:02.742Z,10.47
2019-03-16T11:14:33.565Z,10.50
2019-03-16T11:17:05.055Z,10.55
2019-03-16T11:19:35.709Z,10.42
2019-03-16T11:22:08.529Z,10.26
2019-03-16T11:24:38.919Z,10.26
2019-03-16T11:27:09.257Z,10.39
2019-03-16T11:29:40.832Z,10.34
2019-03-16T11:32:11.439Z,10.31
2019-03-16T11:34:42.108Z,10.49
2019-03-16T11:37:12.570Z,10.55
2019-03-16T11:39:43.653Z,10.59
2019-03-16T11:42:14.010Z,10.82
2019-03-16T11:44:47.830Z,11.17
2019-03-16T11:47:18.266Z,11.36
2019-03-16T11:49:49.481Z,11.54
2019-03-16T11:52:22.114Z,11.73
2019-03-16T11:54:53.076Z,11.86
2019-03-16T11:57:23.482Z,11.96
2019-03-16T11:59:54.359Z,12.12
2019-03-16T12:02:24.631Z,12.11
2019-03-16T12:04:55.112Z,12.17
2019-03-16T12:07:25.435Z,12.31
2019-03-16T12:09:55.993Z,12.48
2019-03-16T12:12:26.358Z,12.63
2019-03-16T12:14:58.504Z,12.89
2019-03-16T12:17:28.914Z,13.17
2019-03-16T12:19:59.248Z,12.74
2019-03-16T12:22:29.789Z,12.54
2019-03-16T12:25:01.281Z,12.65
2019-03-16T12:27:32.160Z,12.54
2019-03-16T12:30:03.853Z,12.88
2019-03-16T12:32:35.276Z,13.13
2019-03-16T12:35:07.605Z,13.20
2019-03-16T12:37:37.936Z,12.95
2019-03-16T12:40:08.694Z,12.98
2019-03-16T12:42:38.907Z,13.22
2019-03-16T12:45:12.029Z,13.29
2019-03-16T12:47:42.799Z,13.40
2019-03-16T12:50:13.368Z,13.21
2019-03-16T12:52:43.856Z,13.24
2019-03-16T12:55:14.505Z,13.54
2019-03-16T12:57:47.877Z,13.64
2019-03-16T13:00:18.153Z,13.17
2019-03-16T13:02:49.253Z,12.99
2019-03-16T13:05:21.585Z,12.69
2019-03-16T13:07:53.317Z,12.53
2019-03-16T13:10:23.554Z,12.47
2019-03-16T13:12:55.104Z,12.54
2019-03-16T13:15:26.522Z,12.63
2019-03-16T13:17:56.969Z,12.64
2019-03-16T13:20:28.650Z,12.89
2019-03-16T13:23:00.418Z,12.64
2019-03-16T13:25:30.835Z,12.74
2019-03-16T13:28:02.265Z,12.58
2019-03-16T13:30:32.714Z,12.76
2019-03-16T13:33:03.369Z,12.92
2019-03-16T13:35:35.375Z,12.87
2019-03-16T13:38:06.876Z,12.78
2019-03-16T13:40:37.660Z,12.78
2019-03-16T13:43:10.071Z,12.64
2019-03-16T13:45:40.359Z,12.49
2019-03-16T13:48:11.089Z,12.53
2019-03-16T13:50:41.363Z,12.64
2019-03-16T13:53:11.846Z,12.60
2019-03-16T13:55:42.570Z,12.47
2019-03-16T13:58:13.971Z,12.34
2019-03-16T14:00:44.325Z,12.20
2019-03-16T14:03:15.349Z,12.49
2019-03-16T14:05:45.785Z,12.59
2019-03-16T14:08:16.291Z,12.35
2019-03-16T14:10:46.900Z,12.28
2019-03-16T14:13:17.358Z,12.42
2019-03-16T14:15:47.652Z,12.57
2019-03-16T14:18:19.802Z,12.66
2019-03-16T14:20:51.223Z,12.37
2019-03-16T14:23:22.068Z,12.48
2019-03-16T14:25:54.237Z,12.45
2019-03-16T14:28:24.746Z,12.31
2019-03-16T14:30:55.644Z,12.36
2019-03-16T14:33:26.068Z,12.34
2019-03-16T14:36:00.984Z,12.15
2019-03-16T14:38:32.642Z,12.21
2019-03-16T14:41:03.388Z,12.11
2019-03-16T14:43:33.956Z,12.12
2019-03-16T14:46:05.640Z,12.09
2019-03-16T14:48:35.856Z,12.13
2019-03-16T14:51:07.009Z,12.12
2019-03-16T14:53:37.469Z,11.98
2019-03-16T14:56:09.166Z,11.99
2019-03-16T14:58:39.654Z,11.93
2019-03-16T15:01:13.475Z,11.93
2019-03-16T15:03:43.744Z,11.95
2019-03-16T15:06:14.243Z,11.95
2019-03-16T15:08:44.795Z,11.85
2019-03-16T15:11:15.571Z,11.84
2019-03-16T15:13:45.873Z,11.80
2019-03-16T15:16:16.464Z,11.75
2019-03-16T15:18:47.317Z,11.75
2019-03-16T15:21:18.112Z,11.64
2019-03-16T15:23:48.836Z,11.68
2019-03-16T15:26:20.528Z,11.62
2019-03-16T15:28:55.101Z,11.73
2019-03-16T15:31:25.213Z,11.74
2019-03-16T15:33:56.834Z,11.64
2019-03-16T15:36:27.310Z,11.64
2019-03-16T15:38:57.604Z,11.67
2019-03-16T15:41:29.781Z,11.67
2019-03-16T15:44:02.009Z,11.91
2019-03-16T15:46:33.413Z,12.18
2019-03-16T15:49:07.203Z,12.19
2019-03-16T15:51:39.100Z,12.20
2019-03-16T15:54:09.814Z,12.18
2019-03-16T15:56:40.140Z,12.01
2019-03-16T15:59:11.949Z,11.87
2019-03-16T16:01:42.720Z,11.96
2019-03-16T16:04:13.068Z,11.91
2019-03-16T16:06:43.478Z,11.75
2019-03-16T16:09:14.836Z,11.75
2019-03-16T16:11:45.213Z,11.73
2019-03-16T16:14:15.763Z,11.51
2019-03-16T16:16:50.931Z,11.45
2019-03-16T16:19:21.989Z,11.43
2019-03-16T16:21:53.579Z,11.23
2019-03-16T16:24:23.932Z,11.22
2019-03-16T16:26:54.396Z,11.20
2019-03-16T16:29:24.858Z,11.11
2019-03-16T16:31:55.809Z,11.17
2019-03-16T16:34:26.386Z,11.28
2019-03-16T16:36:56.754Z,11.23
2019-03-16T16:39:26.950Z,11.21
2019-03-16T16:41:57.350Z,11.14
2019-03-16T16:44:27.696Z,11.18
2019-03-16T16:46:58.508Z,11.14
2019-03-16T16:49:29.942Z,11.06
2019-03-16T16:52:01.515Z,11.09
2019-03-16T16:54:31.984Z,11.07
2019-03-16T16:57:02.759Z,11.06
2019-03-16T16:59:33.182Z,11.00
2019-03-16T17:02:04.718Z,11.00
2019-03-16T17:04:35.276Z,11.01
2019-03-16T17:07:06.508Z,10.95
2019-03-16T17:09:37.417Z,10.90
2019-03-16T17:12:09.604Z,10.83
2019-03-16T17:14:39.823Z,10.82
2019-03-16T17:17:11.683Z,10.85
2019-03-16T17:19:41.965Z,10.77
2019-03-16T17:22:12.699Z,10.72
2019-03-16T17:24:43.023Z,10.68
2019-03-16T17:27:13.284Z,10.68
2019-03-16T17:29:43.502Z,10.62
2019-03-16T17:32:13.808Z,10.57
2019-03-16T17:34:45.251Z,10.53
2019-03-16T17:37:16.085Z,10.54
2019-03-16T17:39:46.701Z,10.44
2019-03-16T17:42:18.306Z,10.42
2019-03-16T17:44:51.086Z,10.35
2019-03-16T17:47:21.465Z,10.35
2019-03-16T17:49:54.104Z,10.43
2019-03-16T17:52:24.709Z,10.35
2019-03-16T17:55:10.718Z,10.28
2019-03-16T17:57:41.085Z,10.27
2019-03-16T18:00:21.121Z,10.27
2019-03-16T18:02:56.377Z,10.20
2019-03-16T18:05:28.081Z,10.29
2019-03-16T18:07:59.796Z,10.18
2019-03-16T18:10:33.630Z,10.20
2019-03-16T18:13:04.449Z,9.71
2019-03-16T18:15:34.913Z,10.27
2019-03-16T18:18:05.273Z,10.25
2019-03-16T18:20:36.663Z,10.26
2019-03-16T18:23:07.511Z,10.29
2019-03-16T18:25:38.086Z,10.26
2019-03-16T18:28:09.616Z,10.13
2019-03-16T18:30:40.315Z,10.08
2019-03-16T18:33:10.665Z,10.09
2019-03-16T18:35:41.168Z,9.96
2019-03-16T18:38:11.815Z,9.88
2019-03-16T18:40:45.278Z,9.90
2019-03-16T18:43:15.595Z,9.90
2019-03-16T18:45:46.217Z,9.96
2019-03-16T18:48:20.898Z,9.96
2019-03-16T18:50:51.106Z,9.87
2019-03-16T18:53:22.926Z,9.88
2019-03-16T18:56:00.626Z,9.91
2019-03-16T18:58:39.087Z,9.85
2019-03-16T19:01:19.908Z,9.85
2019-03-16T19:03:51.745Z,9.81
2019-03-16T19:07:14.820Z,9.83
2019-03-16T19:09:29.697Z,9.88
2019-03-16T19:12:00.335Z,9.89
2019-03-16T19:14:33.973Z,9.84
2019-03-16T19:17:04.717Z,9.82
2019-03-16T19:19:36.598Z,9.96
2019-03-16T19:22:11.745Z,10.07
2019-03-16T19:24:44.582Z,9.98
2019-03-16T19:27:19.008Z,10.02
2019-03-16T19:29:49.680Z,10.01
2019-03-16T19:32:33.640Z,10.07
2019-03-16T19:34:58.827Z,10.04
2019-03-16T19:37:29.795Z,10.05
2019-03-16T19:40:05.149Z,10.06
2019-03-16T19:42:35.552Z,9.98
2019-03-16T19:45:08.593Z,9.97
2019-03-16T19:47:44.390Z,9.96
2019-03-16T19:50:19.032Z,9.94
2019-03-16T19:52:49.554Z,9.93
2019-03-16T19:55:23.576Z,9.89
2019-03-16T19:57:58.932Z,9.85
2019-03-16T20:00:29.385Z,9.83
2019-03-16T20:03:00.019Z,9.66
2019-03-16T20:05:33.554Z,9.67
2019-03-16T20:08:04.342Z,9.15
2019-03-16T20:10:36.474Z,9.60
2019-03-16T20:13:11.993Z,9.69
2019-03-16T20:15:44.637Z,9.66
2019-03-16T20:18:16.956Z,9.60
2019-03-16T20:20:51.532Z,9.51
2019-03-16T20:23:23.778Z,9.54
2019-03-16T20:25:54.807Z,8.85
2019-03-16T20:28:25.853Z,9.43
2019-03-16T20:30:59.389Z,9.37
2019-03-16T20:33:30.633Z,9.40
2019-03-16T20:36:05.096Z,9.31
2019-03-16T20:38:35.682Z,9.29
2019-03-16T20:41:08.584Z,9.32
2019-03-16T20:43:40.387Z,9.22
2019-03-16T20:46:19.609Z,8.65
2019-03-16T20:48:50.448Z,9.21
2019-03-16T20:51:23.871Z,9.13
2019-03-16T20:53:55.004Z,9.06
2019-03-16T20:56:26.572Z,9.06
2019-03-16T20:58:56.892Z,8.44
2019-03-16T21:01:27.285Z,8.88
2019-03-16T21:03:58.452Z,8.91
2019-03-16T21:06:30.275Z,8.84
2019-03-16T21:09:03.508Z,8.86
2019-03-16T21:11:32.804Z,8.82
2019-03-16T21:14:03.395Z,8.81
2019-03-16T21:16:33.723Z,8.75
2019-03-16T21:19:04.282Z,8.74
2019-03-16T21:21:34.573Z,8.85
2019-03-16T21:24:07.343Z,8.75
2019-03-16T21:26:36.919Z,8.68
2019-03-16T21:29:07.153Z,8.69
2019-03-16T21:31:40.535Z,8.60
2019-03-16T21:34:11.590Z,8.65
2019-03-16T21:36:41.998Z,8.83
2019-03-16T21:39:12.304Z,8.86
2019-03-16T21:41:44.401Z,8.89
2019-03-16T21:44:14.800Z,8.94
2019-03-16T21:46:45.642Z,8.86
2019-03-16T21:49:16.489Z,8.89
2019-03-16T21:51:46.882Z,8.84
2019-03-16T21:54:17.228Z,8.71
2019-03-16T21:56:47.634Z,8.66
2019-03-16T21:59:18.094Z,8.59
2019-03-16T22:01:48.524Z,8.60
2019-03-16T22:05:00.378Z,8.60
2019-03-16T22:07:38.320Z,8.59
2019-03-16T22:10:18.173Z,8.62
2019-03-16T22:13:03.227Z,8.57
2019-03-16T22:16:29.972Z,8.49
2019-03-16T22:22:48.453Z,7.90
2019-03-16T22:35:42.780Z,8.51
2019-03-16T22:38:27.883Z,8.41
2019-03-16T22:41:05.821Z,8.45
2019-03-16T22:43:50.994Z,7.83
2019-03-16T22:47:07.862Z,8.33
2019-03-16T22:49:59.935Z,7.74
2019-03-16T22:52:59.670Z,8.48
2019-03-16T22:56:03.438Z,8.41
2019-03-16T23:02:09.841Z,8.36
2019-03-16T23:09:45.170Z,7.78
2019-03-16T23:13:01.624Z,8.24
2019-03-16T23:16:01.500Z,7.71
2019-03-16T23:19:26.882Z,8.20
2019-03-16T23:23:08.701Z,7.82
2019-03-16T23:25:58.458Z,8.33
2019-03-16T23:28:37.119Z,8.36
2019-03-16T23:31:28.322Z,8.48
2019-03-16T23:34:30.368Z,8.47
2019-03-16T23:37:29.817Z,8.39
2019-03-16T23:40:14.688Z,8.53
2019-03-16T23:49:07.888Z,8.61
2019-03-16T23:56:05.656Z,7.89
2019-03-16T23:59:05.991Z,8.51
